sensor_id;sensor_type;location;lat;lon;timestamp;P1;durP1;ratioP1;P2;durP2;ratioP2
21206;SDS011;10761;48.532;8.026;2024-03-22T00:00:12;9.23;;;5.65;;
21206;SDS011;10761;48.532;8.026;2024-03-22T00:02:38;15.68;;;7.20;;
21206;SDS011;10761;48.532;8.026;2024-03-22T00:05:03;9.05;;;6.50;;
21206;SDS011;10761;48.532;8.026;2024-03-22T00:07:29;9.40;;;6.78;;
21206;SDS011;10761;48.532;8.026;2024-03-22T00:09:55;8.50;;;6.63;;
21206;SDS011;10761;48.532;8.026;2024-03-22T00:12:21;11.85;;;6.50;;
21206;SDS011;10761;48.532;8.026;2024-03-22T00:14:47;7.53;;;5.95;;
21206;SDS011;10761;48.532;8.026;2024-03-22T00:17:13;9.68;;;6.40;;
21206;SDS011;10761;48.532;8.026;2024-03-22T00:19:38;11.30;;;6.13;;
21206;SDS011;10761;48.532;8.026;2024-03-22T00:22:04;9.82;;;5.80;;
21206;SDS011;10761;48.532;8.026;2024-03-22T00:24:29;9.77;;;6.50;;
21206;SDS011;10761;48.532;8.026;2024-03-22T00:26:55;10.30;;;6.47;;
21206;SDS011;10761;48.532;8.026;2024-03-22T00:29:20;7.78;;;6.13;;
21206;SDS011;10761;48.532;8.026;2024-03-22T00:31:46;10.90;;;6.05;;
21206;SDS011;10761;48.532;8.026;2024-03-22T00:34:11;9.02;;;5.82;;
21206;SDS011;10761;48.532;8.026;2024-03-22T00:36:37;9.18;;;6.03;;
21206;SDS011;10761;48.532;8.026;2024-03-22T00:39:02;9.30;;;6.13;;
21206;SDS011;10761;48.532;8.026;2024-03-22T00:41:28;11.15;;;6.22;;
21206;SDS011;10761;48.532;8.026;2024-03-22T00:43:54;10.45;;;6.07;;
21206;SDS011;10761;48.532;8.026;2024-03-22T00:46:19;10.43;;;6.60;;
21206;SDS011;10761;48.532;8.026;2024-03-22T00:48:45;11.23;;;6.57;;
21206;SDS011;10761;48.532;8.026;2024-03-22T00:51:10;9.30;;;6.30;;
21206;SDS011;10761;48.532;8.026;2024-03-22T00:53:36;9.45;;;6.43;;
21206;SDS011;10761;48.532;8.026;2024-03-22T00:56:01;10.32;;;6.10;;
21206;SDS011;10761;48.532;8.026;2024-03-22T00:58:27;8.27;;;5.90;;
21206;SDS011;10761;48.532;8.026;2024-03-22T01:00:53;8.35;;;5.70;;
21206;SDS011;10761;48.532;8.026;2024-03-22T01:03:19;8.25;;;5.72;;
21206;SDS011;10761;48.532;8.026;2024-03-22T01:05:45;10.63;;;6.13;;
21206;SDS011;10761;48.532;8.026;2024-03-22T01:08:11;10.32;;;6.25;;
21206;SDS011;10761;48.532;8.026;2024-03-22T01:10:37;8.98;;;5.90;;
21206;SDS011;10761;48.532;8.026;2024-03-22T01:13:02;7.20;;;5.72;;
21206;SDS011;10761;48.532;8.026;2024-03-22T01:15:28;8.35;;;5.70;;
21206;SDS011;10761;48.532;8.026;2024-03-22T01:17:53;8.07;;;5.45;;
21206;SDS011;10761;48.532;8.026;2024-03-22T01:20:19;8.18;;;5.68;;
21206;SDS011;10761;48.532;8.026;2024-03-22T01:22:45;12.57;;;5.40;;
21206;SDS011;10761;48.532;8.026;2024-03-22T01:25:10;9.63;;;5.55;;
21206;SDS011;10761;48.532;8.026;2024-03-22T01:27:36;6.82;;;4.90;;
21206;SDS011;10761;48.532;8.026;2024-03-22T01:30:02;8.35;;;4.97;;
21206;SDS011;10761;48.532;8.026;2024-03-22T01:32:27;7.38;;;4.55;;
21206;SDS011;10761;48.532;8.026;2024-03-22T01:34:53;6.55;;;5.03;;
21206;SDS011;10761;48.532;8.026;2024-03-22T01:37:18;6.82;;;5.20;;
21206;SDS011;10761;48.532;8.026;2024-03-22T01:39:44;6.53;;;4.30;;
21206;SDS011;10761;48.532;8.026;2024-03-22T01:42:09;9.65;;;5.32;;
21206;SDS011;10761;48.532;8.026;2024-03-22T01:44:35;4.95;;;4.07;;
21206;SDS011;10761;48.532;8.026;2024-03-22T01:47:00;8.43;;;4.30;;
21206;SDS011;10761;48.532;8.026;2024-03-22T01:49:26;8.82;;;5.20;;
21206;SDS011;10761;48.532;8.026;2024-03-22T01:51:52;7.25;;;5.60;;
21206;SDS011;10761;48.532;8.026;2024-03-22T01:54:19;8.30;;;5.97;;
21206;SDS011;10761;48.532;8.026;2024-03-22T01:56:45;8.48;;;6.07;;
21206;SDS011;10761;48.532;8.026;2024-03-22T01:59:12;7.53;;;5.90;;
21206;SDS011;10761;48.532;8.026;2024-03-22T02:01:38;13.45;;;5.72;;
21206;SDS011;10761;48.532;8.026;2024-03-22T02:04:04;8.82;;;5.55;;
21206;SDS011;10761;48.532;8.026;2024-03-22T02:06:31;9.55;;;6.60;;
21206;SDS011;10761;48.532;8.026;2024-03-22T02:08:57;6.88;;;5.97;;
21206;SDS011;10761;48.532;8.026;2024-03-22T02:11:23;12.48;;;7.45;;
21206;SDS011;10761;48.532;8.026;2024-03-22T02:13:49;16.13;;;9.70;;
21206;SDS011;10761;48.532;8.026;2024-03-22T02:16:14;9.88;;;6.65;;
21206;SDS011;10761;48.532;8.026;2024-03-22T02:18:40;11.90;;;5.50;;
21206;SDS011;10761;48.532;8.026;2024-03-22T02:21:05;10.15;;;5.38;;
21206;SDS011;10761;48.532;8.026;2024-03-22T02:23:34;6.10;;;4.93;;
21206;SDS011;10761;48.532;8.026;2024-03-22T02:26:01;8.93;;;5.43;;
21206;SDS011;10761;48.532;8.026;2024-03-22T02:28:28;8.23;;;5.60;;
21206;SDS011;10761;48.532;8.026;2024-03-22T02:30:54;8.65;;;5.13;;
21206;SDS011;10761;48.532;8.026;2024-03-22T02:33:19;4.88;;;4.03;;
21206;SDS011;10761;48.532;8.026;2024-03-22T02:35:48;6.32;;;4.13;;
21206;SDS011;10761;48.532;8.026;2024-03-22T02:38:15;8.95;;;4.30;;
21206;SDS011;10761;48.532;8.026;2024-03-22T02:40:42;6.80;;;4.30;;
21206;SDS011;10761;48.532;8.026;2024-03-22T02:43:08;6.40;;;4.32;;
21206;SDS011;10761;48.532;8.026;2024-03-22T02:45:34;7.43;;;4.90;;
21206;SDS011;10761;48.532;8.026;2024-03-22T02:48:00;11.48;;;4.07;;
21206;SDS011;10761;48.532;8.026;2024-03-22T02:50:25;6.93;;;4.50;;
21206;SDS011;10761;48.532;8.026;2024-03-22T02:52:51;7.50;;;3.80;;
21206;SDS011;10761;48.532;8.026;2024-03-22T02:55:16;6.85;;;4.18;;
21206;SDS011;10761;48.532;8.026;2024-03-22T02:57:42;5.65;;;4.40;;
21206;SDS011;10761;48.532;8.026;2024-03-22T03:00:08;5.45;;;4.15;;
21206;SDS011;10761;48.532;8.026;2024-03-22T03:02:34;7.50;;;3.90;;
21206;SDS011;10761;48.532;8.026;2024-03-22T03:04:59;5.15;;;3.95;;
21206;SDS011;10761;48.532;8.026;2024-03-22T03:07:25;8.38;;;4.40;;
21206;SDS011;10761;48.532;8.026;2024-03-22T03:09:51;4.97;;;3.78;;
21206;SDS011;10761;48.532;8.026;2024-03-22T03:12:17;7.28;;;4.35;;
21206;SDS011;10761;48.532;8.026;2024-03-22T03:14:42;5.47;;;4.03;;
21206;SDS011;10761;48.532;8.026;2024-03-22T03:17:08;6.90;;;3.55;;
21206;SDS011;10761;48.532;8.026;2024-03-22T03:19:33;8.68;;;4.35;;
21206;SDS011;10761;48.532;8.026;2024-03-22T03:21:59;4.43;;;4.03;;
21206;SDS011;10761;48.532;8.026;2024-03-22T03:24:25;5.30;;;3.95;;
21206;SDS011;10761;48.532;8.026;2024-03-22T03:26:51;5.45;;;3.55;;
21206;SDS011;10761;48.532;8.026;2024-03-22T03:29:16;7.88;;;4.07;;
21206;SDS011;10761;48.532;8.026;2024-03-22T03:31:42;5.50;;;4.05;;
21206;SDS011;10761;48.532;8.026;2024-03-22T03:34:07;6.72;;;4.13;;
21206;SDS011;10761;48.532;8.026;2024-03-22T03:36:33;5.35;;;3.88;;
21206;SDS011;10761;48.532;8.026;2024-03-22T03:38:58;5.68;;;4.25;;
21206;SDS011;10761;48.532;8.026;2024-03-22T03:41:24;5.20;;;4.00;;
21206;SDS011;10761;48.532;8.026;2024-03-22T03:43:49;10.40;;;4.18;;
21206;SDS011;10761;48.532;8.026;2024-03-22T03:46:15;6.75;;;3.90;;
21206;SDS011;10761;48.532;8.026;2024-03-22T03:48:40;7.93;;;3.83;;
21206;SDS011;10761;48.532;8.026;2024-03-22T03:51:06;4.85;;;3.70;;
21206;SDS011;10761;48.532;8.026;2024-03-22T03:53:31;5.72;;;3.50;;
21206;SDS011;10761;48.532;8.026;2024-03-22T03:55:57;5.70;;;3.42;;
21206;SDS011;10761;48.532;8.026;2024-03-22T03:58:23;7.53;;;3.70;;
21206;SDS011;10761;48.532;8.026;2024-03-22T04:00:48;10.27;;;3.65;;
21206;SDS011;10761;48.532;8.026;2024-03-22T04:03:14;5.65;;;3.85;;
21206;SDS011;10761;48.532;8.026;2024-03-22T04:05:39;6.10;;;3.83;;
21206;SDS011;10761;48.532;8.026;2024-03-22T04:08:05;5.38;;;3.97;;
21206;SDS011;10761;48.532;8.026;2024-03-22T04:10:30;6.82;;;3.80;;
21206;SDS011;10761;48.532;8.026;2024-03-22T04:12:57;6.47;;;3.88;;
21206;SDS011;10761;48.532;8.026;2024-03-22T04:15:23;4.38;;;3.70;;
21206;SDS011;10761;48.532;8.026;2024-03-22T04:17:49;7.97;;;4.25;;
21206;SDS011;10761;48.532;8.026;2024-03-22T04:20:14;6.30;;;4.00;;
21206;SDS011;10761;48.532;8.026;2024-03-22T04:22:40;5.93;;;3.90;;
21206;SDS011;10761;48.532;8.026;2024-03-22T04:25:05;5.68;;;3.75;;
21206;SDS011;10761;48.532;8.026;2024-03-22T04:27:31;5.25;;;3.70;;
21206;SDS011;10761;48.532;8.026;2024-03-22T04:29:57;7.20;;;4.00;;
21206;SDS011;10761;48.532;8.026;2024-03-22T04:32:23;6.88;;;3.97;;
21206;SDS011;10761;48.532;8.026;2024-03-22T04:34:49;6.07;;;4.45;;
21206;SDS011;10761;48.532;8.026;2024-03-22T04:37:14;7.25;;;4.78;;
21206;SDS011;10761;48.532;8.026;2024-03-22T04:39:40;8.88;;;4.60;;
21206;SDS011;10761;48.532;8.026;2024-03-22T04:42:06;6.95;;;4.90;;
21206;SDS011;10761;48.532;8.026;2024-03-22T04:44:32;7.72;;;4.88;;
21206;SDS011;10761;48.532;8.026;2024-03-22T04:46:59;10.23;;;5.13;;
21206;SDS011;10761;48.532;8.026;2024-03-22T04:49:24;6.78;;;6.05;;
21206;SDS011;10761;48.532;8.026;2024-03-22T04:51:50;6.30;;;5.40;;
21206;SDS011;10761;48.532;8.026;2024-03-22T04:54:15;9.95;;;5.00;;
21206;SDS011;10761;48.532;8.026;2024-03-22T04:56:41;5.55;;;4.72;;
21206;SDS011;10761;48.532;8.026;2024-03-22T04:59:06;5.90;;;4.65;;
21206;SDS011;10761;48.532;8.026;2024-03-22T05:01:32;7.03;;;4.57;;
21206;SDS011;10761;48.532;8.026;2024-03-22T05:03:57;9.60;;;5.88;;
21206;SDS011;10761;48.532;8.026;2024-03-22T05:06:23;8.10;;;5.20;;
21206;SDS011;10761;48.532;8.026;2024-03-22T05:08:48;6.60;;;4.93;;
21206;SDS011;10761;48.532;8.026;2024-03-22T05:11:14;9.73;;;5.40;;
21206;SDS011;10761;48.532;8.026;2024-03-22T05:13:39;10.50;;;5.82;;
21206;SDS011;10761;48.532;8.026;2024-03-22T05:16:05;8.65;;;5.72;;
21206;SDS011;10761;48.532;8.026;2024-03-22T05:18:32;9.02;;;5.88;;
21206;SDS011;10761;48.532;8.026;2024-03-22T05:20:57;9.32;;;5.43;;
21206;SDS011;10761;48.532;8.026;2024-03-22T05:23:23;10.43;;;6.20;;
21206;SDS011;10761;48.532;8.026;2024-03-22T05:25:48;9.70;;;5.80;;
21206;SDS011;10761;48.532;8.026;2024-03-22T05:28:14;6.75;;;5.22;;
21206;SDS011;10761;48.532;8.026;2024-03-22T05:30:39;6.15;;;5.45;;
21206;SDS011;10761;48.532;8.026;2024-03-22T05:33:05;8.15;;;5.97;;
21206;SDS011;10761;48.532;8.026;2024-03-22T05:35:30;9.45;;;5.60;;
21206;SDS011;10761;48.532;8.026;2024-03-22T05:37:56;7.95;;;5.82;;
21206;SDS011;10761;48.532;8.026;2024-03-22T05:40:21;9.00;;;5.85;;
21206;SDS011;10761;48.532;8.026;2024-03-22T05:42:48;11.25;;;6.20;;
21206;SDS011;10761;48.532;8.026;2024-03-22T05:45:13;11.95;;;6.57;;
21206;SDS011;10761;48.532;8.026;2024-03-22T05:47:39;11.25;;;6.10;;
21206;SDS011;10761;48.532;8.026;2024-03-22T05:50:04;8.25;;;5.93;;
21206;SDS011;10761;48.532;8.026;2024-03-22T05:52:33;7.97;;;5.90;;
21206;SDS011;10761;48.532;8.026;2024-03-22T05:54:58;7.57;;;6.22;;
21206;SDS011;10761;48.532;8.026;2024-03-22T05:57:24;7.18;;;6.13;;
21206;SDS011;10761;48.532;8.026;2024-03-22T05:59:50;8.23;;;6.00;;
21206;SDS011;10761;48.532;8.026;2024-03-22T06:02:15;12.27;;;5.95;;
21206;SDS011;10761;48.532;8.026;2024-03-22T06:04:41;10.25;;;6.00;;
21206;SDS011;10761;48.532;8.026;2024-03-22T06:07:07;10.50;;;7.70;;
21206;SDS011;10761;48.532;8.026;2024-03-22T06:09:33;14.13;;;8.00;;
21206;SDS011;10761;48.532;8.026;2024-03-22T06:12:24;11.23;;;7.55;;
21206;SDS011;10761;48.532;8.026;2024-03-22T06:14:50;10.48;;;6.60;;
21206;SDS011;10761;48.532;8.026;2024-03-22T06:17:15;12.43;;;7.65;;
21206;SDS011;10761;48.532;8.026;2024-03-22T06:19:41;7.95;;;5.53;;
21206;SDS011;10761;48.532;8.026;2024-03-22T06:22:07;10.85;;;6.20;;
21206;SDS011;10761;48.532;8.026;2024-03-22T06:24:32;8.25;;;5.90;;
21206;SDS011;10761;48.532;8.026;2024-03-22T06:26:58;9.23;;;5.70;;
21206;SDS011;10761;48.532;8.026;2024-03-22T06:29:24;8.40;;;5.50;;
21206;SDS011;10761;48.532;8.026;2024-03-22T06:31:49;8.20;;;5.82;;
21206;SDS011;10761;48.532;8.026;2024-03-22T06:34:15;9.02;;;5.55;;
21206;SDS011;10761;48.532;8.026;2024-03-22T06:36:41;8.38;;;5.85;;
21206;SDS011;10761;48.532;8.026;2024-03-22T06:39:06;9.73;;;6.97;;
21206;SDS011;10761;48.532;8.026;2024-03-22T06:41:33;10.43;;;7.10;;
21206;SDS011;10761;48.532;8.026;2024-03-22T06:44:00;11.85;;;7.53;;
21206;SDS011;10761;48.532;8.026;2024-03-22T06:46:26;11.65;;;7.65;;
21206;SDS011;10761;48.532;8.026;2024-03-22T06:48:52;11.32;;;7.93;;
21206;SDS011;10761;48.532;8.026;2024-03-22T06:51:17;9.40;;;7.30;;
21206;SDS011;10761;48.532;8.026;2024-03-22T06:53:43;9.35;;;7.63;;
21206;SDS011;10761;48.532;8.026;2024-03-22T06:56:10;11.25;;;7.47;;
21206;SDS011;10761;48.532;8.026;2024-03-22T06:58:37;10.68;;;7.40;;
21206;SDS011;10761;48.532;8.026;2024-03-22T07:01:05;16.88;;;10.57;;
21206;SDS011;10761;48.532;8.026;2024-03-22T07:03:31;17.42;;;9.73;;
21206;SDS011;10761;48.532;8.026;2024-03-22T07:05:56;14.30;;;9.30;;
21206;SDS011;10761;48.532;8.026;2024-03-22T07:08:29;9.45;;;6.68;;
21206;SDS011;10761;48.532;8.026;2024-03-22T07:10:54;6.68;;;5.97;;
21206;SDS011;10761;48.532;8.026;2024-03-22T07:13:20;7.35;;;5.50;;
21206;SDS011;10761;48.532;8.026;2024-03-22T07:15:46;9.32;;;6.10;;
21206;SDS011;10761;48.532;8.026;2024-03-22T07:18:12;9.02;;;6.03;;
21206;SDS011;10761;48.532;8.026;2024-03-22T07:20:41;9.57;;;6.60;;
21206;SDS011;10761;48.532;8.026;2024-03-22T07:23:07;10.25;;;6.43;;
21206;SDS011;10761;48.532;8.026;2024-03-22T07:25:33;7.63;;;6.35;;
21206;SDS011;10761;48.532;8.026;2024-03-22T07:27:59;10.32;;;6.72;;
21206;SDS011;10761;48.532;8.026;2024-03-22T07:30:25;9.10;;;6.03;;
21206;SDS011;10761;48.532;8.026;2024-03-22T07:32:51;6.72;;;5.50;;
21206;SDS011;10761;48.532;8.026;2024-03-22T07:35:16;6.43;;;5.47;;
21206;SDS011;10761;48.532;8.026;2024-03-22T07:37:42;8.35;;;5.35;;
21206;SDS011;10761;48.532;8.026;2024-03-22T07:40:07;8.32;;;5.50;;
21206;SDS011;10761;48.532;8.026;2024-03-22T07:42:33;10.60;;;5.65;;
21206;SDS011;10761;48.532;8.026;2024-03-22T07:44:59;5.95;;;4.97;;
21206;SDS011;10761;48.532;8.026;2024-03-22T07:47:24;10.07;;;5.90;;
21206;SDS011;10761;48.532;8.026;2024-03-22T07:49:50;7.60;;;5.97;;
21206;SDS011;10761;48.532;8.026;2024-03-22T07:52:16;7.15;;;5.45;;
21206;SDS011;10761;48.532;8.026;2024-03-22T07:54:41;10.55;;;6.10;;
21206;SDS011;10761;48.532;8.026;2024-03-22T07:57:07;12.10;;;6.20;;
21206;SDS011;10761;48.532;8.026;2024-03-22T07:59:32;12.70;;;6.53;;
21206;SDS011;10761;48.532;8.026;2024-03-22T08:01:58;8.05;;;5.43;;
21206;SDS011;10761;48.532;8.026;2024-03-22T08:04:24;7.20;;;4.82;;
21206;SDS011;10761;48.532;8.026;2024-03-22T08:06:52;7.32;;;5.15;;
21206;SDS011;10761;48.532;8.026;2024-03-22T08:09:18;8.50;;;5.32;;
21206;SDS011;10761;48.532;8.026;2024-03-22T08:11:44;6.85;;;5.20;;
21206;SDS011;10761;48.532;8.026;2024-03-22T08:14:09;6.93;;;5.05;;
21206;SDS011;10761;48.532;8.026;2024-03-22T08:16:35;7.18;;;5.15;;
21206;SDS011;10761;48.532;8.026;2024-03-22T08:19:01;9.18;;;5.32;;
21206;SDS011;10761;48.532;8.026;2024-03-22T08:21:26;9.80;;;5.43;;
21206;SDS011;10761;48.532;8.026;2024-03-22T08:23:52;8.85;;;6.35;;
21206;SDS011;10761;48.532;8.026;2024-03-22T08:26:17;10.93;;;7.30;;
21206;SDS011;10761;48.532;8.026;2024-03-22T08:28:43;8.88;;;7.15;;
21206;SDS011;10761;48.532;8.026;2024-03-22T08:31:12;9.70;;;6.72;;
21206;SDS011;10761;48.532;8.026;2024-03-22T08:33:38;15.25;;;8.48;;
21206;SDS011;10761;48.532;8.026;2024-03-22T08:36:04;14.30;;;9.05;;
21206;SDS011;10761;48.532;8.026;2024-03-22T08:38:30;14.65;;;11.40;;
21206;SDS011;10761;48.532;8.026;2024-03-22T08:40:55;12.25;;;6.60;;
21206;SDS011;10761;48.532;8.026;2024-03-22T08:43:21;8.82;;;6.22;;
21206;SDS011;10761;48.532;8.026;2024-03-22T08:45:47;11.82;;;6.05;;
21206;SDS011;10761;48.532;8.026;2024-03-22T08:48:13;12.05;;;6.93;;
21206;SDS011;10761;48.532;8.026;2024-03-22T08:50:41;11.05;;;6.95;;
21206;SDS011;10761;48.532;8.026;2024-03-22T08:53:07;9.73;;;6.85;;
21206;SDS011;10761;48.532;8.026;2024-03-22T08:55:33;9.75;;;6.78;;
21206;SDS011;10761;48.532;8.026;2024-03-22T08:57:58;10.52;;;5.90;;
21206;SDS011;10761;48.532;8.026;2024-03-22T09:00:24;7.13;;;6.00;;
21206;SDS011;10761;48.532;8.026;2024-03-22T09:02:49;9.25;;;5.80;;
21206;SDS011;10761;48.532;8.026;2024-03-22T09:05:15;7.88;;;5.20;;
21206;SDS011;10761;48.532;8.026;2024-03-22T09:07:41;7.38;;;5.47;;
21206;SDS011;10761;48.532;8.026;2024-03-22T09:10:07;8.95;;;4.75;;
21206;SDS011;10761;48.532;8.026;2024-03-22T09:12:33;8.90;;;5.32;;
21206;SDS011;10761;48.532;8.026;2024-03-22T09:14:59;6.53;;;4.90;;
21206;SDS011;10761;48.532;8.026;2024-03-22T09:17:25;9.02;;;5.38;;
21206;SDS011;10761;48.532;8.026;2024-03-22T09:19:51;8.68;;;5.20;;
21206;SDS011;10761;48.532;8.026;2024-03-22T09:22:16;9.10;;;5.07;;
21206;SDS011;10761;48.532;8.026;2024-03-22T09:24:42;7.60;;;4.82;;
21206;SDS011;10761;48.532;8.026;2024-03-22T09:27:07;9.23;;;6.05;;
21206;SDS011;10761;48.532;8.026;2024-03-22T09:29:35;13.75;;;11.10;;
21206;SDS011;10761;48.532;8.026;2024-03-22T09:32:01;22.05;;;15.98;;
21206;SDS011;10761;48.532;8.026;2024-03-22T09:34:27;20.13;;;13.77;;
21206;SDS011;10761;48.532;8.026;2024-03-22T09:36:54;9.55;;;5.40;;
21206;SDS011;10761;48.532;8.026;2024-03-22T09:39:20;11.13;;;7.05;;
21206;SDS011;10761;48.532;8.026;2024-03-22T09:41:46;11.30;;;5.88;;
21206;SDS011;10761;48.532;8.026;2024-03-22T09:44:12;7.32;;;5.53;;
21206;SDS011;10761;48.532;8.026;2024-03-22T09:46:42;10.13;;;5.60;;
21206;SDS011;10761;48.532;8.026;2024-03-22T09:49:08;8.93;;;5.75;;
21206;SDS011;10761;48.532;8.026;2024-03-22T09:51:35;7.72;;;6.32;;
21206;SDS011;10761;48.532;8.026;2024-03-22T09:54:02;7.43;;;5.53;;
21206;SDS011;10761;48.532;8.026;2024-03-22T09:56:28;9.68;;;5.35;;
21206;SDS011;10761;48.532;8.026;2024-03-22T09:58:56;8.32;;;5.47;;
21206;SDS011;10761;48.532;8.026;2024-03-22T10:01:25;7.28;;;5.75;;
21206;SDS011;10761;48.532;8.026;2024-03-22T10:03:51;11.05;;;5.80;;
21206;SDS011;10761;48.532;8.026;2024-03-22T10:06:17;10.65;;;5.68;;
21206;SDS011;10761;48.532;8.026;2024-03-22T10:08:43;8.05;;;4.97;;
21206;SDS011;10761;48.532;8.026;2024-03-22T10:11:09;9.23;;;5.72;;
21206;SDS011;10761;48.532;8.026;2024-03-22T10:13:35;6.88;;;4.32;;
21206;SDS011;10761;48.532;8.026;2024-03-22T10:16:01;7.35;;;5.20;;
21206;SDS011;10761;48.532;8.026;2024-03-22T10:18:27;6.38;;;5.00;;
21206;SDS011;10761;48.532;8.026;2024-03-22T10:21:00;6.38;;;5.03;;
21206;SDS011;10761;48.532;8.026;2024-03-22T10:23:25;6.15;;;4.68;;
21206;SDS011;10761;48.532;8.026;2024-03-22T10:25:51;8.30;;;4.97;;
21206;SDS011;10761;48.532;8.026;2024-03-22T10:28:17;8.32;;;4.68;;
21206;SDS011;10761;48.532;8.026;2024-03-22T10:30:43;7.88;;;4.90;;
21206;SDS011;10761;48.532;8.026;2024-03-22T10:33:12;7.60;;;4.25;;
21206;SDS011;10761;48.532;8.026;2024-03-22T10:35:39;8.88;;;4.18;;
21206;SDS011;10761;48.532;8.026;2024-03-22T10:38:06;7.55;;;4.95;;
21206;SDS011;10761;48.532;8.026;2024-03-22T10:40:32;10.98;;;4.70;;
21206;SDS011;10761;48.532;8.026;2024-03-22T10:42:59;6.65;;;4.75;;
21206;SDS011;10761;48.532;8.026;2024-03-22T10:45:27;6.28;;;4.15;;
21206;SDS011;10761;48.532;8.026;2024-03-22T10:47:55;6.53;;;4.53;;
21206;SDS011;10761;48.532;8.026;2024-03-22T10:50:21;9.60;;;4.43;;
21206;SDS011;10761;48.532;8.026;2024-03-22T10:55:20;5.28;;;3.28;;
21206;SDS011;10761;48.532;8.026;2024-03-22T10:57:55;7.85;;;4.18;;
21206;SDS011;10761;48.532;8.026;2024-03-22T11:00:27;6.78;;;3.83;;
21206;SDS011;10761;48.532;8.026;2024-03-22T11:03:03;7.13;;;4.10;;
21206;SDS011;10761;48.532;8.026;2024-03-22T11:05:29;6.40;;;3.60;;
21206;SDS011;10761;48.532;8.026;2024-03-22T11:08:04;6.53;;;3.22;;
21206;SDS011;10761;48.532;8.026;2024-03-22T11:10:31;5.07;;;2.83;;
21206;SDS011;10761;48.532;8.026;2024-03-22T11:13:03;5.15;;;3.20;;
21206;SDS011;10761;48.532;8.026;2024-03-22T11:15:30;4.93;;;3.15;;
21206;SDS011;10761;48.532;8.026;2024-03-22T11:17:56;5.15;;;3.10;;
21206;SDS011;10761;48.532;8.026;2024-03-22T11:20:23;3.60;;;2.28;;
21206;SDS011;10761;48.532;8.026;2024-03-22T11:22:48;4.43;;;2.58;;
21206;SDS011;10761;48.532;8.026;2024-03-22T11:25:15;3.67;;;2.75;;
21206;SDS011;10761;48.532;8.026;2024-03-22T11:27:41;3.40;;;2.25;;
21206;SDS011;10761;48.532;8.026;2024-03-22T11:30:07;5.07;;;2.30;;
21206;SDS011;10761;48.532;8.026;2024-03-22T11:32:33;4.13;;;2.42;;
21206;SDS011;10761;48.532;8.026;2024-03-22T11:35:07;5.93;;;2.75;;
21206;SDS011;10761;48.532;8.026;2024-03-22T11:37:35;3.47;;;2.72;;
21206;SDS011;10761;48.532;8.026;2024-03-22T11:40:00;5.88;;;2.78;;
21206;SDS011;10761;48.532;8.026;2024-03-22T11:42:30;6.28;;;3.30;;
21206;SDS011;10761;48.532;8.026;2024-03-22T11:44:56;4.10;;;2.70;;
21206;SDS011;10761;48.532;8.026;2024-03-22T11:47:23;4.80;;;2.25;;
21206;SDS011;10761;48.532;8.026;2024-03-22T11:49:48;4.13;;;1.92;;
21206;SDS011;10761;48.532;8.026;2024-03-22T11:52:14;5.10;;;2.08;;
21206;SDS011;10761;48.532;8.026;2024-03-22T11:54:40;2.10;;;1.90;;
21206;SDS011;10761;48.532;8.026;2024-03-22T11:57:05;4.50;;;2.40;;
21206;SDS011;10761;48.532;8.026;2024-03-22T11:59:33;2.58;;;2.03;;
21206;SDS011;10761;48.532;8.026;2024-03-22T12:01:59;5.05;;;2.30;;
21206;SDS011;10761;48.532;8.026;2024-03-22T12:04:25;6.20;;;2.20;;
21206;SDS011;10761;48.532;8.026;2024-03-22T12:06:51;3.75;;;2.28;;
21206;SDS011;10761;48.532;8.026;2024-03-22T12:09:18;3.97;;;2.10;;
21206;SDS011;10761;48.532;8.026;2024-03-22T12:11:43;4.78;;;1.83;;
21206;SDS011;10761;48.532;8.026;2024-03-22T12:14:09;3.35;;;2.10;;
21206;SDS011;10761;48.532;8.026;2024-03-22T12:16:35;3.35;;;2.10;;
21206;SDS011;10761;48.532;8.026;2024-03-22T12:19:01;2.92;;;2.08;;
21206;SDS011;10761;48.532;8.026;2024-03-22T12:21:28;5.07;;;2.10;;
21206;SDS011;10761;48.532;8.026;2024-03-22T12:23:53;7.10;;;2.17;;
21206;SDS011;10761;48.532;8.026;2024-03-22T12:26:19;2.40;;;2.10;;
21206;SDS011;10761;48.532;8.026;2024-03-22T12:28:45;2.90;;;1.88;;
21206;SDS011;10761;48.532;8.026;2024-03-22T12:31:10;3.50;;;2.00;;
21206;SDS011;10761;48.532;8.026;2024-03-22T12:33:36;3.92;;;1.92;;
21206;SDS011;10761;48.532;8.026;2024-03-22T12:36:02;4.13;;;2.42;;
21206;SDS011;10761;48.532;8.026;2024-03-22T12:38:29;6.75;;;2.35;;
21206;SDS011;10761;48.532;8.026;2024-03-22T12:40:54;3.72;;;1.90;;
21206;SDS011;10761;48.532;8.026;2024-03-22T12:43:20;3.53;;;2.00;;
21206;SDS011;10761;48.532;8.026;2024-03-22T12:45:46;2.88;;;2.20;;
21206;SDS011;10761;48.532;8.026;2024-03-22T12:48:11;5.43;;;2.30;;
21206;SDS011;10761;48.532;8.026;2024-03-22T12:50:37;6.95;;;2.08;;
21206;SDS011;10761;48.532;8.026;2024-03-22T12:53:03;3.97;;;1.75;;
21206;SDS011;10761;48.532;8.026;2024-03-22T12:55:29;3.67;;;1.70;;
21206;SDS011;10761;48.532;8.026;2024-03-22T12:57:56;4.65;;;1.75;;
21206;SDS011;10761;48.532;8.026;2024-03-22T13:00:22;3.15;;;1.73;;
21206;SDS011;10761;48.532;8.026;2024-03-22T13:02:48;4.63;;;2.28;;
21206;SDS011;10761;48.532;8.026;2024-03-22T13:05:13;2.80;;;1.90;;
21206;SDS011;10761;48.532;8.026;2024-03-22T13:07:40;4.80;;;1.75;;
21206;SDS011;10761;48.532;8.026;2024-03-22T13:10:07;3.13;;;1.83;;
21206;SDS011;10761;48.532;8.026;2024-03-22T13:12:33;3.08;;;1.75;;
21206;SDS011;10761;48.532;8.026;2024-03-22T13:14:59;5.25;;;1.73;;
21206;SDS011;10761;48.532;8.026;2024-03-22T13:17:29;2.80;;;2.30;;
21206;SDS011;10761;48.532;8.026;2024-03-22T13:19:54;4.25;;;2.35;;
21206;SDS011;10761;48.532;8.026;2024-03-22T13:22:20;2.20;;;1.63;;
21206;SDS011;10761;48.532;8.026;2024-03-22T13:24:46;2.67;;;1.60;;
21206;SDS011;10761;48.532;8.026;2024-03-22T13:27:12;5.00;;;1.80;;
21206;SDS011;10761;48.532;8.026;2024-03-22T13:29:41;4.22;;;1.70;;
21206;SDS011;10761;48.532;8.026;2024-03-22T13:32:06;2.95;;;1.65;;
21206;SDS011;10761;48.532;8.026;2024-03-22T13:34:36;2.00;;;1.70;;
21206;SDS011;10761;48.532;8.026;2024-03-22T13:37:04;2.97;;;1.80;;
21206;SDS011;10761;48.532;8.026;2024-03-22T13:39:31;2.53;;;1.58;;
21206;SDS011;10761;48.532;8.026;2024-03-22T13:41:57;2.88;;;1.50;;
21206;SDS011;10761;48.532;8.026;2024-03-22T13:44:22;2.75;;;1.50;;
21206;SDS011;10761;48.532;8.026;2024-03-22T13:46:51;5.05;;;1.83;;
21206;SDS011;10761;48.532;8.026;2024-03-22T13:49:18;3.97;;;1.95;;
21206;SDS011;10761;48.532;8.026;2024-03-22T13:51:46;3.53;;;1.80;;
21206;SDS011;10761;48.532;8.026;2024-03-22T13:54:12;4.03;;;1.80;;
21206;SDS011;10761;48.532;8.026;2024-03-22T13:56:38;3.03;;;2.08;;
21206;SDS011;10761;48.532;8.026;2024-03-22T13:59:04;3.92;;;1.58;;
21206;SDS011;10761;48.532;8.026;2024-03-22T14:01:33;2.97;;;2.00;;
21206;SDS011;10761;48.532;8.026;2024-03-22T14:03:58;6.82;;;1.92;;
21206;SDS011;10761;48.532;8.026;2024-03-22T14:06:24;5.72;;;2.75;;
21206;SDS011;10761;48.532;8.026;2024-03-22T14:08:49;6.60;;;2.70;;
21206;SDS011;10761;48.532;8.026;2024-03-22T14:11:15;4.63;;;2.40;;
21206;SDS011;10761;48.532;8.026;2024-03-22T14:13:40;4.57;;;1.90;;
21206;SDS011;10761;48.532;8.026;2024-03-22T14:16:06;5.60;;;3.45;;
21206;SDS011;10761;48.532;8.026;2024-03-22T14:18:34;4.60;;;2.28;;
21206;SDS011;10761;48.532;8.026;2024-03-22T14:21:00;3.17;;;2.00;;
21206;SDS011;10761;48.532;8.026;2024-03-22T14:23:27;7.07;;;1.85;;
21206;SDS011;10761;48.532;8.026;2024-03-22T14:25:54;4.22;;;1.52;;
21206;SDS011;10761;48.532;8.026;2024-03-22T14:28:20;4.18;;;2.10;;
21206;SDS011;10761;48.532;8.026;2024-03-22T14:30:46;2.90;;;1.80;;
21206;SDS011;10761;48.532;8.026;2024-03-22T14:33:12;4.43;;;1.70;;
21206;SDS011;10761;48.532;8.026;2024-03-22T14:35:37;4.32;;;2.13;;
21206;SDS011;10761;48.532;8.026;2024-03-22T14:38:03;4.30;;;2.47;;
21206;SDS011;10761;48.532;8.026;2024-03-22T14:40:28;5.47;;;1.90;;